Time;durP1;ratioP1;P1;durP2;ratioP2;P2;SDS_P1;SDS_P2;PMS_P1;PMS_P2;Temp;Humidity;BMP_temperature;BMP_pressure;BME280_temperature;BME280_humidity;BME280_pressure;Samples;Min_cycle;Max_cycle;Signal;HPM_P1;HPM_P2
2023/04/19 00:02:19;;;;;;;7.70;5.30;;;;;;;;;;6161149;23;20016;-84
2023/04/19 00:05:05;;;;;;;9.90;5.90;;;;;;;;;;6182047;23;20060;-84
2023/04/19 00:07:50;;;;;;;11.63;5.72;;;;;;;;;;6161488;23;20367;-84
2023/04/19 00:10:35;;;;;;;12.43;6.65;;;;;;;;;;6182642;23;20039;-84
2023/04/19 00:13:20;;;;;;;10.48;6.45;;;;;;;;;;6181923;23;20016;-84
2023/04/19 00:16:05;;;;;;;11.88;6.72;;;;;;;;;;6183252;23;20067;-84
2023/04/19 00:18:50;;;;;;;8.63;5.80;;;;;;;;;;6183732;23;20015;-84
2023/04/19 00:21:34;;;;;;;10.10;6.10;;;;;;;;;;6183716;23;20096;-83
2023/04/19 00:24:19;;;;;;;8.63;5.88;;;;;;;;;;6160601;23;20107;-84
2023/04/19 00:27:03;;;;;;;9.15;6.00;;;;;;;;;;6181639;23;20043;-85
2023/04/19 00:29:48;;;;;;;11.65;6.25;;;;;;;;;;6182286;23;20511;-84
2023/04/19 00:32:33;;;;;;;11.10;6.25;;;;;;;;;;6161506;23;20096;-84
2023/04/19 00:35:17;;;;;;;11.43;6.53;;;;;;;;;;6181685;23;20403;-84
2023/04/19 00:38:02;;;;;;;9.63;6.38;;;;;;;;;;6182960;23;20032;-88
2023/04/19 00:40:46;;;;;;;10.07;5.35;;;;;;;;;;6183709;23;20495;-84
2023/04/19 00:43:31;;;;;;;12.23;6.80;;;;;;;;;;6183503;23;20048;-83
2023/04/19 00:46:16;;;;;;;11.48;6.30;;;;;;;;;;6182955;23;20047;-84
2023/04/19 00:49:00;;;;;;;11.27;6.53;;;;;;;;;;6182095;23;20020;-84
2023/04/19 00:51:46;;;;;;;10.25;6.68;;;;;;;;;;6182227;23;20059;-84
2023/04/19 00:54:32;;;;;;;10.68;5.80;;;7.70;99.90;;;;;;6182117;23;20016;-84
2023/04/19 00:57:17;;;;;;;9.23;5.95;;;;;;;;;;6182781;23;20100;-84
2023/04/19 01:00:01;;;;;;;11.15;6.72;;;;;;;;;;6181968;23;20012;-84
2023/04/19 01:02:46;;;;;;;10.95;6.65;;;;;;;;;;6161372;23;20020;-85
2023/04/19 01:05:31;;;;;;;11.50;6.72;;;;;;;;;;6182104;23;20013;-84
2023/04/19 01:08:15;;;;;;;14.70;8.38;;;;;;;;;;6181498;23;20024;-85
2023/04/19 01:11:00;;;;;;;11.82;7.10;;;;;;;;;;6183491;23;20016;-84
2023/04/19 01:13:44;;;;;;;11.13;7.38;;;;;;;;;;6183455;23;20016;-84
2023/04/19 01:16:29;;;;;;;9.85;6.80;;;;;;;;;;6182807;23;20078;-84
2023/04/19 01:19:15;;;;;;;13.43;7.60;;;;;;;;;;6181598;23;20031;-84
2023/04/19 01:22:01;;;;;;;11.27;6.18;;;;;;;;;;6185192;23;20020;-84
2023/04/19 01:24:46;;;;;;;11.13;6.50;;;;;;;;;;6184085;23;20349;-84
2023/04/19 01:27:31;;;;;;;11.98;7.30;;;;;;;;;;6183800;23;20067;-84
2023/04/19 01:30:15;;;;;;;12.98;7.00;;;;;;;;;;6184717;23;20072;-84
2023/04/19 01:33:00;;;;;;;13.60;7.55;;;;;;;;;;6185390;23;20097;-83
2023/04/19 01:35:44;;;;;;;11.85;7.15;;;;;;;;;;6184089;23;20068;-84
2023/04/19 01:38:29;;;;;;;16.30;8.27;;;;;;;;;;6184605;23;20082;-84
2023/04/19 01:41:14;;;;;;;11.85;7.47;;;;;;;;;;6183381;23;20020;-84
2023/04/19 01:43:59;;;;;;;12.60;7.95;;;;;;;;;;6183951;23;20031;-83
2023/04/19 01:46:44;;;;;;;12.82;7.32;;;;;;;;;;6183822;23;20020;-86
2023/04/19 01:49:29;;;;;;;13.68;8.00;;;;;;;;;;6162457;23;20140;-84
2023/04/19 01:52:14;;;;;;;13.98;8.40;;;;;;;;;;6183197;23;20462;-84
2023/04/19 01:54:58;;;;;;;15.43;8.07;;;;;;;;;;6185206;23;20093;-84
2023/04/19 01:57:43;;;;;;;10.82;7.30;;;;;;;;;;6183872;23;20091;-84
2023/04/19 02:00:28;;;;;;;15.05;8.98;;;;;;;;;;6183267;23;20027;-85
2023/04/19 02:03:13;;;;;;;12.07;7.97;;;;;;;;;;6182953;23;20046;-86
2023/04/19 02:05:57;;;;;;;13.63;9.25;;;;;;;;;;6183153;23;20023;-85
2023/04/19 02:08:42;;;;;;;15.93;9.02;;;;;;;;;;6183751;23;20059;-84
2023/04/19 02:11:27;;;;;;;16.67;8.52;;;;;;;;;;6184198;23;20012;-84
2023/04/19 02:14:11;;;;;;;15.93;8.98;;;;;;;;;;6183605;23;20515;-88
2023/04/19 02:16:56;;;;;;;15.15;9.80;;;;;;;;;;6183632;23;20395;-84
2023/04/19 02:19:40;;;;;;;16.60;9.52;;;;;;;;;;6183420;23;20092;-83
2023/04/19 02:22:25;;;;;;;17.13;9.05;;;;;;;;;;6183014;23;20512;-84
2023/04/19 02:25:09;;;;;;;13.23;8.10;;;;;;;;;;6162450;23;20080;-84
2023/04/19 02:27:54;;;;;;;14.68;8.60;;;;;;;;;;6184800;23;20023;-85
2023/04/19 02:30:39;;;;;;;13.85;8.25;;;;;;;;;;6183094;23;20051;-84
2023/04/19 02:33:25;;;;;;;14.82;8.80;;;;;;;;;;6182742;23;20031;-83
2023/04/19 02:36:09;;;;;;;13.55;8.30;;;;;;;;;;6184775;23;20356;-86
2023/04/19 02:38:54;;;;;;;18.02;8.80;;;;;;;;;;6183428;23;20379;-84
2023/04/19 02:41:39;;;;;;;14.95;8.30;;;;;;;;;;6161968;23;20020;-83
2023/04/19 02:44:24;;;;;;;13.07;8.55;;;;;;;;;;6181769;23;20060;-84
2023/04/19 02:47:09;;;;;;;17.63;8.50;;;;;;;;;;6183153;23;20570;-84
2023/04/19 02:49:54;;;;;;;15.23;8.52;;;;;;;;;;6183302;23;20063;-83
2023/04/19 02:52:38;;;;;;;11.57;8.02;;;;;;;;;;6182515;23;20012;-84
2023/04/19 02:55:23;;;;;;;12.55;8.02;;;;;;;;;;6182562;23;20388;-83
2023/04/19 02:58:08;;;;;;;11.15;6.90;;;;;;;;;;6162412;23;20047;-85
2023/04/19 03:00:52;;;;;;;14.57;7.72;;;;;;;;;;6161972;23;20020;-84
2023/04/19 03:03:36;;;;;;;14.45;7.45;;;;;;;;;;6182635;23;20083;-84
2023/04/19 03:06:21;;;;;;;15.63;7.25;;;;;;;;;;6183698;23;20024;-85
2023/04/19 03:09:06;;;;;;;11.90;6.70;;;;;;;;;;6184267;23;20023;-84
2023/04/19 03:11:50;;;;;;;10.68;6.65;;;;;;;;;;6184456;23;20447;-84
2023/04/19 03:14:35;;;;;;;16.25;7.07;;;;;;;;;;6182224;23;20043;-84
2023/04/19 03:17:19;;;;;;;12.63;7.43;;;;;;;;;;6182884;23;20071;-90
2023/04/19 03:20:10;;;;;;;13.30;7.18;;;;;;;;;;6183065;23;20031;-84
2023/04/19 03:22:55;;;;;;;13.73;7.03;;;;;;;;;;6182810;23;20070;-84
2023/04/19 03:25:40;;;;;;;11.80;6.80;;;;;;;;;;6183487;23;20462;-84
2023/04/19 03:28:24;;;;;;;11.93;6.60;;;;;;;;;;6182221;23;20048;-83
2023/04/19 03:31:09;;;;;;;11.73;7.00;;;;;;;;;;6182811;23;20016;-84
2023/04/19 03:33:53;;;;;;;11.32;6.65;;;;;;;;;;6182920;23;20084;-83
2023/04/19 03:36:39;;;;;;;11.63;6.47;;;;;;;;;;6183398;23;20067;-84
2023/04/19 03:39:23;;;;;;;11.63;6.45;;;;;;;;;;6183343;23;20490;-87
2023/04/19 03:42:08;;;;;;;9.82;6.43;;;;;;;;;;6161745;23;20105;-85
2023/04/19 03:44:52;;;;;;;12.93;6.03;;;;;;;;;;6182577;23;20048;-84
2023/04/19 03:47:37;;;;;;;13.13;7.15;;;;;;;;;;6183343;23;20083;-84
2023/04/19 03:50:21;;;;;;;10.10;5.97;;;;;;;;;;6183815;23;20079;-84
2023/04/19 03:53:06;;;;;;;15.18;6.47;;;;;;;;;;6161616;23;20100;-84
2023/04/19 03:55:51;;;;;;;8.98;6.22;;;;;;;;;;6183936;23;20035;-85
2023/04/19 03:58:36;;;;;;;15.90;5.63;;;;;;;;;;6181876;23;20012;-84
2023/04/19 04:01:21;;;;;;;14.27;6.63;;;;;;;;;;6182675;23;20020;-84
2023/04/19 04:04:06;;;;;;;12.55;7.47;;;;;;;;;;6183862;23;20459;-84
2023/04/19 04:06:50;;;;;;;12.82;5.93;;;;;;;;;;6183858;23;20389;-84
2023/04/19 04:09:35;;;;;;;10.45;6.10;;;;;;;;;;6183200;23;20028;-84
2023/04/19 04:12:19;;;;;;;11.30;6.07;;;;;;;;;;6183624;23;20036;-85
2023/04/19 04:15:04;;;;;;;10.43;5.78;;;;;;;;;;6182561;23;20071;-83
2023/04/19 04:17:50;;;;;;;12.55;6.10;;;;;;;;;;6181960;23;20023;-84
2023/04/19 04:20:35;;;;;;;11.13;5.68;;;;;;;;;;6183257;23;20016;-85
2023/04/19 04:23:24;;;;;;;10.88;5.40;;;;;;;;;;6181996;23;20096;-84
2023/04/19 04:26:08;;;;;;;11.38;5.88;;;;;;;;;;6182396;23;20020;-84
2023/04/19 04:28:53;;;;;;;12.52;5.65;;;;;;;;;;6183753;23;20040;-84
2023/04/19 04:31:40;;;;;;;10.75;6.18;;;;;;;;;;6183571;23;20019;-84
2023/04/19 04:34:24;;;;;;;8.38;5.50;;;;;;;;;;6182367;23;20592;-84
2023/04/19 04:37:10;;;;;;;10.40;5.40;;;;;;;;;;6183507;23;20451;-85
2023/04/19 04:39:55;;;;;;;9.65;5.43;;;;;;;;;;6182670;23;20063;-83
2023/04/19 04:42:39;;;;;;;11.70;5.60;;;;;;;;;;6183175;23;20457;-86
2023/04/19 04:45:24;;;;;;;8.40;4.85;;;;;;;;;;6161424;23;20016;-84
2023/04/19 04:48:08;;;;;;;9.27;4.72;;;;;;;;;;6182454;23;20035;-84
2023/04/19 04:50:53;;;;;;;11.23;5.82;;;;;;;;;;6182104;23;20083;-85
2023/04/19 04:53:38;;;;;;;12.20;5.10;;;;;;;;;;6181857;23;20459;-84
2023/04/19 04:56:22;;;;;;;14.57;5.38;;;;;;;;;;6182641;23;20428;-84
2023/04/19 04:59:07;;;;;;;11.15;5.38;;;;;;;;;;6182464;23;20023;-85
2023/04/19 05:01:52;;;;;;;8.98;4.82;;;;;;;;;;6181634;23;20400;-85
2023/04/19 05:04:36;;;;;;;10.30;5.45;;;;;;;;;;6183117;23;20044;-85
2023/04/19 05:07:21;;;;;;;8.30;4.97;;;;;;;;;;6161188;23;20067;-84
2023/04/19 05:10:06;;;;;;;8.52;4.97;;;;;;;;;;6182209;23;20020;-85
2023/04/19 05:12:50;;;;;;;9.38;5.15;;;;;;;;;;6181669;23;20076;-85
2023/04/19 05:15:35;;;;;;;9.80;5.50;;;;;;;;;;6181619;23;20068;-90
2023/04/19 05:18:20;;;;;;;8.68;5.22;;;;;;;;;;6182302;23;20021;-84
2023/04/19 05:21:07;;;;;;;7.85;4.60;;;;;;;;;;6183378;23;20044;-85
2023/04/19 05:23:52;;;;;;;8.73;4.85;;;;;;;;;;6182774;23;20067;-84
2023/04/19 05:26:37;;;;;;;9.23;4.80;;;;;;;;;;6180821;23;20140;-86
2023/04/19 05:29:21;;;;;;;7.75;4.50;;;;;;;;;;6183546;23;20020;-85
2023/04/19 05:32:06;;;;;;;8.55;4.63;;;;;;;;;;6183610;23;20016;-86
2023/04/19 05:34:51;;;;;;;8.43;4.50;;;;;;;;;;6182025;23;20099;-85
2023/04/19 05:37:36;;;;;;;13.23;6.57;;;;;;;;;;6178605;23;20378;-87
2023/04/19 05:40:22;;;;;;;10.18;4.55;;;;;;;;;;6182776;23;20328;-85
2023/04/19 05:43:07;;;;;;;9.73;4.57;;;;;;;;;;6183406;23;20032;-87
2023/04/19 05:45:51;;;;;;;7.05;4.30;;;;;;;;;;6160381;23;20020;-85
2023/04/19 05:48:36;;;;;;;9.60;4.68;;;;;;;;;;6183301;23;20019;-89
2023/04/19 05:51:20;;;;;;;6.50;4.28;;;;;;;;;;6181801;23;20016;-84
2023/04/19 05:54:05;;;;;;;7.53;4.40;;;;;;;;;;6182126;23;20067;-84
2023/04/19 05:56:50;;;;;;;8.40;4.72;;;;;;;;;;6160471;23;20039;-84
2023/04/19 05:59:34;;;;;;;8.15;4.57;;;;;;;;;;6181919;23;20039;-84
2023/04/19 06:02:19;;;;;;;7.20;4.32;;;;;;;;;;6182968;23;20064;-83
2023/04/19 06:05:03;;;;;;;9.25;4.95;;;;;;;;;;6181689;23;20063;-84
2023/04/19 06:07:48;;;;;;;9.88;4.50;;;;;;;;;;6182623;23;20027;-85
2023/04/19 06:10:33;;;;;;;11.15;5.07;;;;;;;;;;6162497;23;20455;-85
2023/04/19 06:13:17;;;;;;;7.38;4.00;;;;;;;;;;6162645;23;20019;-86
2023/04/19 06:16:02;;;;;;;9.35;4.10;;;;;;;;;;6161851;23;20024;-84
2023/04/19 06:18:47;;;;;;;6.15;3.70;;;;;;;;;;6184178;23;20067;-83
2023/04/19 06:21:32;;;;;;;5.40;3.83;;;;;;;;;;6184634;23;20020;-83
2023/04/19 06:24:17;;;;;;;7.75;3.88;;;;;;;;;;6183001;23;20024;-83
2023/04/19 06:27:04;;;;;;;6.35;3.65;;;;;;;;;;6182940;23;20012;-85
2023/04/19 06:29:49;;;;;;;6.50;3.78;;;;;;;;;;6182913;23;20487;-83
2023/04/19 06:32:34;;;;;;;7.43;3.78;;;;;;;;;;6183378;23;20019;-83
2023/04/19 06:35:18;;;;;;;6.07;3.47;;;;;;;;;;6183478;23;20075;-84
2023/04/19 06:38:03;;;;;;;6.80;3.88;;;;;;;;;;6183852;23;20052;-84
2023/04/19 06:40:47;;;;;;;9.30;3.60;;;;;;;;;;6184042;23;20024;-84
2023/04/19 06:43:32;;;;;;;7.78;3.60;;;;;;;;;;6162395;23;20344;-83
2023/04/19 06:46:17;;;;;;;6.97;3.65;;;;;;;;;;6183049;23;20020;-84
2023/04/19 06:49:02;;;;;;;10.07;3.72;;;;;;;;;;6183746;23;20023;-84
2023/04/19 06:51:47;;;;;;;7.15;3.13;;;;;;;;;;6183706;23;20063;-85
2023/04/19 06:54:31;;;;;;;6.97;3.80;;;;;;;;;;6183134;23;20072;-85
2023/04/19 06:57:16;;;;;;;7.25;2.92;;;;;;;;;;6184342;23;20020;-84
2023/04/19 07:00:01;;;;;;;7.20;3.17;;;;;;;;;;6183897;23;20392;-84
2023/04/19 07:02:45;;;;;;;5.90;3.25;;;;;;;;;;6182868;23;20051;-88
2023/04/19 07:05:30;;;;;;;5.40;3.30;;;;;;;;;;6184176;23;20068;-84
2023/04/19 07:08:15;;;;;;;5.57;3.00;;;;;;;;;;6183082;23;20023;-85
2023/04/19 07:10:59;;;;;;;5.38;3.30;;;;;;;;;;6182287;23;20023;-84
2023/04/19 07:13:44;;;;;;;6.75;3.40;;;;;;;;;;6183045;23;20020;-84
2023/04/19 07:16:28;;;;;;;5.95;3.08;;;;;;;;;;6183124;23;20031;-83
2023/04/19 07:19:13;;;;;;;5.63;3.63;;;;;;;;;;6184296;23;20031;-85
2023/04/19 07:21:58;;;;;;;6.30;2.78;;;;;;;;;;6183570;23;20151;-84
2023/04/19 07:24:43;;;;;;;5.88;2.70;;;;;;;;;;6182660;23;20501;-83
2023/04/19 07:27:29;;;;;;;4.82;2.33;;;;;;;;;;6184090;23;20391;-84
2023/04/19 07:30:14;;;;;;;5.05;2.63;;;;;;;;;;6183995;23;20060;-84
2023/04/19 07:32:58;;;;;;;6.22;2.75;;;;;;;;;;6182234;23;20060;-83
2023/04/19 07:35:43;;;;;;;4.32;2.72;;;;;;;;;;6183374;23;20021;-83
2023/04/19 07:38:28;;;;;;;5.68;2.47;;;;;;;;;;6182611;23;20055;-84
2023/04/19 07:41:13;;;;;;;4.50;2.88;;;;;;;;;;6183323;23;20028;-84
2023/04/19 07:43:57;;;;;;;3.97;2.63;;;;;;;;;;6161100;23;20093;-83
2023/04/19 07:46:45;;;;;;;4.68;2.50;;;;;;;;;;6183619;23;20048;-86
2023/04/19 07:49:32;;;;;;;5.85;2.92;;;;;;;;;;6161561;23;20059;-84
2023/04/19 07:52:17;;;;;;;3.63;2.30;;;;;;;;;;6183301;23;20096;-85
2023/04/19 07:55:04;;;;;;;4.20;2.50;;;;;;;;;;6181981;23;20019;-84
2023/04/19 07:57:49;;;;;;;4.45;2.40;;;;;;;;;;6182472;23;20024;-85
2023/04/19 08:00:35;;;;;;;7.47;3.40;;;;;;;;;;6183685;23;20043;-86
2023/04/19 08:03:20;;;;;;;7.07;3.03;;;;;;;;;;6182389;23;20060;-84
2023/04/19 08:06:07;;;;;;;6.55;2.60;;;;;;;;;;6182851;23;20083;-84
2023/04/19 08:08:51;;;;;;;4.93;2.60;;;;;;;;;;6183607;23;20017;-84
2023/04/19 08:11:36;;;;;;;4.05;2.28;;;;;;;;;;6183717;23;20016;-85
2023/04/19 08:14:20;;;;;;;5.70;2.85;;;;;;;;;;6182594;23;20019;-84
2023/04/19 08:17:05;;;;;;;8.05;3.00;;;;;;;;;;6181847;23;20024;-85
2023/04/19 08:19:50;;;;;;;4.43;2.67;;;;;;;;;;6182316;23;20054;-84
2023/04/19 08:22:35;;;;;;;5.25;2.10;;;;;;;;;;6182393;23;20344;-83
2023/04/19 08:25:22;;;;;;;4.50;2.30;;;;;;;;;;6183663;23;20367;-84
2023/04/19 08:28:07;;;;;;;5.00;2.30;;;;;;;;;;6181405;23;20020;-84
2023/04/19 08:30:51;;;;;;;3.75;2.08;;;;;;;;;;6161133;23;20046;-84
2023/04/19 08:33:35;;;;;;;3.88;2.13;;;;;;;;;;6182245;23;20020;-84
2023/04/19 08:36:21;;;;;;;3.63;2.35;;;;;;;;;;6160652;23;20372;-84
2023/04/19 08:39:06;;;;;;;5.28;2.28;;;;;;;;;;6181669;23;20043;-84
2023/04/19 08:41:51;;;;;;;5.82;2.58;;;;;;;;;;6183462;23;20016;-84
2023/04/19 08:44:39;;;;;;;4.25;2.45;;;;;;;;;;6183305;23;20016;-84
2023/04/19 08:47:24;;;;;;;3.47;2.15;;;;;;;;;;6161652;23;20471;-85
2023/04/19 08:50:09;;;;;;;3.75;1.83;;;;;;;;;;6181418;23;20052;-84
2023/04/19 08:52:54;;;;;;;4.10;2.10;;;;;;;;;;6184393;23;20043;-83
2023/04/19 08:55:40;;;;;;;8.32;2.55;;;;;;;;;;6183241;23;20064;-84
2023/04/19 08:58:25;;;;;;;4.00;1.90;;;;;;;;;;6183174;23;20148;-84
2023/04/19 09:01:10;;;;;;;5.63;1.90;;;;;;;;;;6182733;23;20020;-85
2023/04/19 09:03:55;;;;;;;3.42;1.80;;;;;;;;;;6182157;23;20471;-84
2023/04/19 09:06:40;;;;;;;5.93;2.35;;;;;;;;;;6182136;23;20684;-83
2023/04/19 09:09:26;;;;;;;3.30;1.73;;;;;;;;;;6160738;23;20020;-83
2023/04/19 09:12:17;;;;;;;5.50;2.22;;;;;;;;;;6181422;23;20016;-84
2023/04/19 09:15:03;;;;;;;6.15;1.73;;;;;;;;;;6161013;23;20396;-88
2023/04/19 09:18:02;;;;;;;3.30;2.15;;;;;;;;;;6182067;23;20028;-84
2023/04/19 09:20:47;;;;;;;5.50;1.83;;;;;;;;;;6183276;23;20079;-84
2023/04/19 09:23:31;;;;;;;5.00;2.20;;;;;;;;;;6160779;23;20470;-83
2023/04/19 09:26:16;;;;;;;9.02;3.03;;;;;;;;;;6181265;23;20388;-84
2023/04/19 09:29:03;;;;;;;8.35;1.88;;;;;;;;;;6183336;23;20016;-83
2023/04/19 09:31:58;;;;;;;5.65;1.92;;;;;;;;;;6183311;23;20016;-83
2023/04/19 09:34:52;;;;;;;2.70;1.50;;;;;;;;;;6183187;23;20500;-83
2023/04/19 09:37:40;;;;;;;3.25;1.88;;;;;;;;;;6182400;23;20039;-84
2023/04/19 09:40:26;;;;;;;2.90;1.67;;;;;;;;;;6181356;23;20241;-83
2023/04/19 09:43:11;;;;;;;3.00;1.75;;;;;;;;;;6184425;23;20064;-83
2023/04/19 09:45:55;;;;;;;4.53;1.90;;;;;;;;;;6185088;23;20047;-83
2023/04/19 09:48:40;;;;;;;3.58;1.63;;;;;;;;;;6184099;23;20020;-84
2023/04/19 09:51:39;;;;;;;3.40;1.45;;;;;;;;;;6183208;23;20117;-83
2023/04/19 09:54:27;;;;;;;6.78;1.90;;;14.20;63.70;;;;;;6183191;23;20047;-84
2023/04/19 09:57:12;;;;;;;4.57;1.92;;;;;;;;;;6184462;23;20024;-83
2023/04/19 09:59:58;;;;;;;3.08;1.88;;;;;;;;;;6183714;23;20044;-84
2023/04/19 10:02:49;;;;;;;8.32;3.20;;;;;;;;;;6185004;23;20437;-86
2023/04/19 10:05:34;;;;;;;5.65;1.50;;;;;;;;;;6184859;23;20016;-86
2023/04/19 10:08:19;;;;;;;3.85;1.60;;;;;;;;;;6184310;23;20072;-84
2023/04/19 10:11:04;;;;;;;2.25;1.40;;;;;;;;;;6184891;23;20035;-84
2023/04/19 10:13:50;;;;;;;5.60;2.17;;;;;;;;;;6162566;23;20023;-83
2023/04/19 10:16:35;;;;;;;5.32;1.40;;;;;;;;;;6183538;23;20254;-84
2023/04/19 10:19:24;;;;;;;3.75;1.52;;;;;;;;;;6184098;23;20059;-83
2023/04/19 10:22:09;;;;;;;4.15;1.92;;;;;;;;;;6183454;23;20120;-83
2023/04/19 10:25:14;;;;;;;2.30;1.40;;;14.70;56.00;;;;;;6184572;23;20024;-83
2023/04/19 10:27:59;;;;;;;5.97;1.60;;;;;;;;;;6184497;23;20348;-83
2023/04/19 10:30:53;;;;;;;3.20;1.48;;;;;;;;;;6184797;23;20064;-84
2023/04/19 10:33:39;;;;;;;2.60;1.25;;;;;;;;;;6184649;23;20016;-83
2023/04/19 10:36:27;;;;;;;4.80;1.27;;;15.10;58.60;;;;;;6182696;23;20070;-83
2023/04/19 10:39:32;;;;;;;2.78;1.40;;;;;;;;;;6183198;23;20093;-86
2023/04/19 10:42:17;;;;;;;2.80;1.20;;;;;;;;;;6183944;23;20092;-84
2023/04/19 10:45:39;;;;;;;3.75;1.55;;;15.20;55.40;;;;;;6184503;23;20037;-84
2023/04/19 10:48:32;;;;;;;3.08;1.35;;;;;;;;;;6182631;23;20107;-86
2023/04/19 10:51:21;;;;;;;2.70;1.40;;;;;;;;;;6182583;23;20016;-86
2023/04/19 10:54:07;;;;;;;4.13;1.58;;;;;;;;;;6184465;23;20052;-85
2023/04/19 10:57:03;;;;;;;4.57;1.60;;;;;;;;;;6162328;23;20070;-85
2023/04/19 11:00:07;;;;;;;3.75;1.45;;;;;;;;;;6183199;23;20340;-85
2023/04/19 11:02:52;;;;;;;3.25;1.30;;;;;;;;;;6183204;23;20056;-84
2023/04/19 11:05:59;;;;;;;2.53;1.20;;;;;;;;;;6182283;23;20427;-85
2023/04/19 11:08:47;;;;;;;3.00;1.45;;;;;;;;;;6182961;23;20068;-86
2023/04/19 11:11:47;;;;;;;3.30;1.20;;;;;;;;;;6182622;23;20020;-88
2023/04/19 11:14:35;;;;;;;3.58;1.42;;;;;;;;;;6182272;23;20016;-88
2023/04/19 11:17:30;;;;;;;5.50;1.48;;;;;;;;;;6182282;23;20096;-87
2023/04/19 11:20:15;;;;;;;2.67;1.50;;;;;;;;;;6184389;23;20012;-85
2023/04/19 11:22:59;;;;;;;5.10;1.48;;;;;;;;;;6184114;23;20016;-86
2023/04/19 11:25:47;;;;;;;2.38;1.38;;;;;;;;;;6182781;23;20074;-84
2023/04/19 11:28:35;;;;;;;2.55;1.60;;;;;;;;;;6183563;23;20131;-86
2023/04/19 11:31:20;;;;;;;4.22;1.65;;;;;;;;;;6183548;23;20067;-89
2023/04/19 11:34:05;;;;;;;3.70;1.60;;;;;;;;;;6183054;23;20044;-85
2023/04/19 11:36:53;;;;;;;3.58;1.67;;;;;;;;;;6182902;23;20019;-86
2023/04/19 11:39:46;;;;;;;3.35;1.60;;;;;;;;;;6182304;23;20012;-87
2023/04/19 11:42:32;;;;;;;4.47;1.70;;;;;;;;;;6182233;23;20015;-86
2023/04/19 11:45:24;;;;;;;2.55;1.33;;;;;;;;;;6183073;23;20071;-86
2023/04/19 11:48:16;;;;;;;7.60;2.45;;;;;;;;;;6183825;23;20024;-87
2023/04/19 11:54:24;;;;;;;3.13;1.80;;;;;;;;;;6183336;23;20055;-88
2023/04/19 11:57:12;;;;;;;4.55;1.90;;;;;;;;;;6161784;23;20100;-87
2023/04/19 12:13:43;;;;;;;2.63;1.60;;;;;;;;;;6092680;23;20025;-85
2023/04/19 12:16:27;;;;;;;3.30;2.22;;;;;;;;;;6182610;23;20340;-85
2023/04/19 12:19:13;;;;;;;3.42;2.10;;;;;;;;;;6187293;23;20039;-84
2023/04/19 12:22:07;;;;;;;3.75;2.40;;;;;;;;;;6182422;23;20463;-85
2023/04/19 12:24:55;;;;;;;5.00;2.50;;;;;;;;;;6182064;23;20036;-85
2023/04/19 12:27:40;;;;;;;4.63;2.72;;;;;;;;;;6181627;23;20071;-83
2023/04/19 12:30:25;;;;;;;3.75;2.58;;;;;;;;;;6184000;23;20019;-93
2023/04/19 12:33:10;;;;;;;4.00;2.50;;;;;;;;;;6182257;23;20024;-83
2023/04/19 12:35:55;;;;;;;3.55;2.70;;;;;;;;;;6183411;23;20020;-83
2023/04/19 12:38:40;;;;;;;3.97;2.20;;;;;;;;;;6160454;23;20020;-83
2023/04/19 12:41:25;;;;;;;4.15;2.60;;;;;;;;;;6181887;23;20060;-83
2023/04/19 12:44:10;;;;;;;3.85;2.38;;;;;;;;;;6183473;23;20091;-83
2023/04/19 12:46:56;;;;;;;3.30;2.30;;;;;;;;;;6182098;23;20023;-82
2023/04/19 12:49:40;;;;;;;5.05;2.30;;;;;;;;;;6182723;23;20032;-83
2023/04/19 12:52:25;;;;;;;9.50;2.60;;;;;;;;;;6182088;23;20015;-83
2023/04/19 12:55:09;;;;;;;4.53;2.20;;;;;;;;;;6182147;23;20086;-83
2023/04/19 12:57:54;;;;;;;5.95;2.92;;;;;;;;;;6181875;23;20347;-83
2023/04/19 13:00:39;;;;;;;4.05;1.90;;;;;;;;;;6181504;23;20435;-84
2023/04/19 13:03:23;;;;;;;6.55;2.95;;;;;;;;;;6182146;23;20055;-83
2023/04/19 13:06:11;;;;;;;3.60;2.35;;;;;;;;;;6182100;23;20063;-83
2023/04/19 13:08:55;;;;;;;4.28;2.47;;;;;;;;;;6181791;23;20015;-84
2023/04/19 13:11:40;;;;;;;6.95;2.30;;;;;;;;;;6181515;23;20068;-84
2023/04/19 13:14:28;;;;;;;6.53;2.30;;;;;;;;;;6181995;23;20016;-83
2023/04/19 13:17:12;;;;;;;4.72;2.35;;;;;;;;;;6185274;23;20471;-83
2023/04/19 13:19:57;;;;;;;5.60;1.98;;;;;;;;;;6185501;23;20337;-82
2023/04/19 13:22:41;;;;;;;4.53;2.03;;;;;;;;;;6184577;23;20020;-83
2023/04/19 13:25:26;;;;;;;4.05;2.40;;;;;;;;;;6185125;23;20020;-83
2023/04/19 13:28:10;;;;;;;4.90;2.35;;;;;;;;;;6185323;23;20101;-83
2023/04/19 13:30:55;;;;;;;3.85;2.22;;;;;;;;;;6162396;23;20032;-83
2023/04/19 13:33:39;;;;;;;4.90;2.60;;;;;;;;;;6183435;23;20019;-83
2023/04/19 13:36:24;;;;;;;4.25;2.40;;;;;;;;;;6183859;23;20067;-83
2023/04/19 13:39:08;;;;;;;5.72;2.50;;;;;;;;;;6184006;23;20051;-84
2023/04/19 13:41:53;;;;;;;5.97;2.20;;;;;;;;;;6162206;23;20043;-84
2023/04/19 13:44:38;;;;;;;4.38;2.10;;;;;;;;;;6161887;23;20075;-84
2023/04/19 13:47:22;;;;;;;5.25;2.10;;;;;;;;;;6186502;23;20499;-83
2023/04/19 13:50:07;;;;;;;5.60;2.33;;;;;;;;;;6185279;23;20020;-84
2023/04/19 13:52:52;;;;;;;5.20;2.38;;;;;;;;;;6161298;23;20100;-85
2023/04/19 13:55:36;;;;;;;4.90;2.22;;;;;;;;;;6184481;23;20024;-87
2023/04/19 13:58:23;;;;;;;3.88;2.22;;;;;;;;;;6183693;23;20040;-84
2023/04/19 14:01:07;;;;;;;4.45;2.22;;;;;;;;;;6163160;23;20095;-83
2023/04/19 14:03:52;;;;;;;4.60;2.15;;;;;;;;;;6184313;23;20039;-82
2023/04/19 14:06:36;;;;;;;3.78;1.75;;;;;;;;;;6184607;23;20148;-87
2023/04/19 14:09:21;;;;;;;7.88;2.47;;;;;;;;;;6183419;23;20094;-84
2023/04/19 14:12:07;;;;;;;7.22;2.60;;;;;;;;;;6183461;23;20059;-82
2023/04/19 14:14:52;;;;;;;2.92;2.20;;;;;;;;;;6184261;23;20090;-82
2023/04/19 14:17:36;;;;;;;5.68;2.50;;;;;;;;;;6184821;23;20023;-82
2023/04/19 14:20:21;;;;;;;5.97;2.72;;;;;;;;;;6183486;23;20015;-82
2023/04/19 14:23:06;;;;;;;4.65;2.47;;;;;;;;;;6162267;23;20071;-83
2023/04/19 14:25:53;;;;;;;5.00;2.20;;;;;;;;;;6176106;23;20501;-83
2023/04/19 14:28:38;;;;;;;7.38;2.78;;;;;;;;;;6182135;23;20067;-84
2023/04/19 14:31:23;;;;;;;4.32;2.35;;;;;;;;;;6159968;23;20023;-84
2023/04/19 14:34:07;;;;;;;4.57;2.50;;;;;;;;;;6159260;23;20015;-83
2023/04/19 14:36:52;;;;;;;7.22;2.50;;;;;;;;;;6180655;23;20020;-84
2023/04/19 14:39:36;;;;;;;3.92;2.15;;;;;;;;;;6180905;23;20479;-83
2023/04/19 14:42:21;;;;;;;3.78;2.45;;;;;;;;;;6160186;23;20020;-83
2023/04/19 14:45:06;;;;;;;5.18;2.35;;;;;;;;;;6181816;23;20372;-82
2023/04/19 14:47:51;;;;;;;4.93;2.38;;;;;;;;;;6181512;23;20466;-84
2023/04/19 14:50:35;;;;;;;7.70;2.78;;;;;;;;;;6180592;23;20096;-84
2023/04/19 14:53:20;;;;;;;4.05;2.83;;;;;;;;;;6160032;23;20023;-85
2023/04/19 14:56:05;;;;;;;5.85;2.63;;;;;;;;;;6181659;23;20039;-83
2023/04/19 14:58:49;;;;;;;6.07;2.63;;;;;;;;;;6180174;23;20023;-84
2023/04/19 15:01:34;;;;;;;5.53;2.60;;;;;;;;;;6182075;23;20056;-83
2023/04/19 15:04:19;;;;;;;5.20;1.88;;;;;;;;;;6180950;23;20016;-83
2023/04/19 15:07:03;;;;;;;8.93;2.55;;;;;;;;;;6181252;23;20055;-83
2023/04/19 15:09:48;;;;;;;5.90;2.55;;;;;;;;;;6158123;23;20071;-84
2023/04/19 15:12:33;;;;;;;6.20;2.58;;;;;;;;;;6180920;23;20348;-84
2023/04/19 15:15:18;;;;;;;6.95;3.15;;;;;;;;;;6181880;23;20375;-83
2023/04/19 15:18:03;;;;;;;5.05;2.88;;;;;;;;;;6180528;23;20462;-84
2023/04/19 15:20:47;;;;;;;5.97;2.80;;;;;;;;;;6181398;23;20059;-86
2023/04/19 15:23:32;;;;;;;6.07;2.95;;;;;;;;;;6183882;23;20065;-83
2023/04/19 15:26:16;;;;;;;8.88;3.30;;;;;;;;;;6182556;23;20452;-84
2023/04/19 15:29:00;;;;;;;7.65;3.20;;;;;;;;;;6161168;23;20024;-84
2023/04/19 15:31:45;;;;;;;7.50;3.58;;;;;;;;;;6182758;23;20012;-83
2023/04/19 15:34:30;;;;;;;9.05;2.80;;;;;;;;;;6183962;23;20578;-83
2023/04/19 15:37:15;;;;;;;5.30;2.83;;;;;;;;;;6183992;23;20454;-83
2023/04/19 15:39:59;;;;;;;9.40;2.88;;;;;;;;;;6182738;23;20012;-84
2023/04/19 15:42:45;;;;;;;5.72;2.78;;;;;;;;;;6182575;23;20156;-84
2023/04/19 15:45:29;;;;;;;4.82;2.78;;;;;;;;;;6183758;23;20085;-84
2023/04/19 15:48:14;;;;;;;5.53;3.05;;;;;;;;;;6183744;23;20502;-83
2023/04/19 15:51:00;;;;;;;7.72;2.50;;;;;;;;;;6182061;23;20012;-84
2023/04/19 15:53:45;;;;;;;6.05;2.22;;;;;;;;;;6186495;23;20019;-84
2023/04/19 15:56:30;;;;;;;4.18;2.33;;;;;;;;;;6187444;23;20046;-84
2023/04/19 15:59:14;;;;;;;6.88;2.33;;;;;;;;;;6184667;23;20016;-84
2023/04/19 16:02:08;;;;;;;6.45;2.70;;;;;;;;;;6184731;23;20028;-84
2023/04/19 16:04:53;;;;;;;7.68;2.60;;;;;;;;;;6182240;23;20015;-88
2023/04/19 16:07:38;;;;;;;8.10;2.75;;;;;;;;;;6187493;23;20518;-82
2023/04/19 16:10:23;;;;;;;5.82;2.17;;;;;;;;;;6183555;23;20325;-84
2023/04/19 16:13:07;;;;;;;4.28;2.30;;;;;;;;;;6181780;23;20700;-82
2023/04/19 16:15:52;;;;;;;6.25;2.60;;;;;;;;;;6161200;23;20019;-85
2023/04/19 16:18:39;;;;;;;5.88;2.40;;;;;;;;;;6183614;23;20086;-83
2023/04/19 16:21:27;;;;;;;4.82;1.98;;;;;;;;;;6181832;23;20019;-83
2023/04/19 16:24:11;;;;;;;4.45;2.10;;;;;;;;;;6181327;23;20498;-83
2023/04/19 16:26:59;;;;;;;3.55;1.98;;;;;;;;;;6182669;23;20064;-83
2023/04/19 16:29:44;;;;;;;3.60;1.90;;;;;;;;;;6182135;23;20101;-84
2023/04/19 16:32:29;;;;;;;6.70;2.47;;;;;;;;;;6182266;23;20024;-84
2023/04/19 16:35:13;;;;;;;3.10;1.80;;;;;;;;;;6181626;23;20016;-83
2023/04/19 16:38:03;;;;;;;4.00;1.80;;;;;;;;;;6181424;23;20458;-83
2023/04/19 16:40:48;;;;;;;3.67;2.10;;;;;;;;;;6183621;23;20364;-83
2023/04/19 16:43:33;;;;;;;6.13;3.35;;;;;;;;;;6183207;23;20052;-83
2023/04/19 16:46:18;;;;;;;7.55;2.17;;;;;;;;;;6182478;23;20190;-83